Time;durP1;ratioP1;P1;durP2;ratioP2;P2;SDS_P1;SDS_P2;PMS_P1;PMS_P2;Temp;Humidity;BMP_temperature;BMP_pressure;BME280_temperature;BME280_humidity;BME280_pressure;Samples;Min_cycle;Max_cycle;Signal;HPM_P1;HPM_P2
2022/06/08 00:02:03;;;;;;;9.93;8.93;;;16.80;99.90;16.10;99922;;;;531858;266;24200;-81
2022/06/08 00:04:30;;;;;;;10.33;9.07;;;16.80;99.90;16.20;99920;;;;540655;264;24215;-78
2022/06/08 00:06:58;;;;;;;9.97;8.97;;;16.80;99.90;16.20;99917;;;;541907;261;24141;-80
2022/06/08 00:09:27;;;;;;;10.97;9.37;;;16.80;99.90;16.20;99916;;;;541728;261;24255;-73
2022/06/08 00:11:56;;;;;;;10.03;9.03;;;16.80;99.90;16.10;99914;;;;541891;259;24142;-76
2022/06/08 00:14:23;;;;;;;10.33;9.33;;;16.80;99.90;16.20;99911;;;;532100;266;24225;-76
2022/06/08 00:16:51;;;;;;;13.23;9.93;;;16.80;99.90;16.20;99918;;;;549498;260;24187;-73
2022/06/08 00:19:19;;;;;;;13.63;9.77;;;16.80;99.90;16.10;99908;;;;532728;266;24219;-73
2022/06/08 00:21:47;;;;;;;13.17;9.83;;;16.80;99.90;16.10;99913;;;;549398;256;24147;-73
2022/06/08 00:24:18;;;;;;;10.80;9.30;;;16.80;99.90;16.10;99917;;;;550991;259;24177;-79
2022/06/08 00:26:42;;;;;;;12.07;10.33;;;16.80;99.90;16.10;99918;;;;533598;265;24267;-75
2022/06/08 00:29:11;;;;;;;10.80;9.70;;;16.80;99.90;16.20;99911;;;;542767;261;24170;-74
2022/06/08 00:31:43;;;;;;;10.77;9.63;;;16.80;99.90;16.20;99908;;;;542687;261;24155;-74
2022/06/08 00:34:08;;;;;;;10.03;9.13;;;16.70;99.90;16.20;99911;;;;540357;264;24238;-76
2022/06/08 00:36:36;;;;;;;12.17;9.93;;;16.80;99.90;16.10;99907;;;;542156;261;24204;-75
2022/06/08 00:39:04;;;;;;;12.37;11.03;;;16.80;99.90;16.10;99915;;;;533066;264;24243;-74
2022/06/08 00:41:53;;;;;;;10.63;9.60;;;16.80;99.90;16.10;99915;;;;549699;261;24198;-77
2022/06/08 00:44:21;;;;;;;11.43;9.67;;;16.80;99.90;16.10;99919;;;;532557;265;24175;-74
2022/06/08 00:46:49;;;;;;;11.53;10.43;;;16.70;99.90;16.10;99915;;;;543484;261;24160;-79
2022/06/08 00:49:31;;;;;;;11.27;10.03;;;16.70;99.90;16.10;99915;;;;532961;265;24202;-78
2022/06/08 00:52:00;;;;;;;12.43;11.10;;;16.70;99.90;16.10;99909;;;;532975;265;24187;-78
2022/06/08 00:54:27;;;;;;;13.43;10.47;;;16.70;99.90;16.10;99900;;;;542356;261;24183;-76
2022/06/08 00:56:55;;;;;;;12.30;10.73;;;16.70;99.90;16.10;99905;;;;543078;261;24169;-76
2022/06/08 00:59:26;;;;;;;14.47;11.50;;;16.70;99.90;16.10;99908;;;;532436;266;24192;-75
2022/06/08 01:01:51;;;;;;;13.47;11.53;;;16.70;99.90;16.10;99896;;;;541820;261;24243;-74
2022/06/08 01:04:20;;;;;;;11.97;10.77;;;16.70;99.90;16.10;99896;;;;542016;261;25226;-73
2022/06/08 01:06:48;;;;;;;12.90;11.13;;;16.70;99.90;16.10;99895;;;;532264;264;24229;-73
2022/06/08 01:09:35;;;;;;;15.07;11.87;;;16.60;99.90;16.10;99894;;;;532521;266;24199;-76
2022/06/08 01:12:03;;;;;;;11.90;10.70;;;16.60;99.90;16.10;99887;;;;541914;261;24172;-75
2022/06/08 01:14:31;;;;;;;15.13;12.30;;;16.70;99.90;16.00;99888;;;;541905;260;24146;-73
2022/06/08 01:17:03;;;;;;;16.57;12.90;;;16.60;99.90;16.00;99890;;;;532908;266;24160;-73
2022/06/08 01:19:30;;;;;;;13.10;11.80;;;16.60;99.90;16.00;99887;;;;532446;266;24246;-73
2022/06/08 01:21:58;;;;;;;14.77;12.37;;;16.60;99.90;16.00;99886;;;;532607;259;24165;-73
2022/06/08 01:24:27;;;;;;;15.30;13.17;;;16.60;99.90;16.00;99882;;;;541889;261;24155;-72
2022/06/08 01:27:19;;;;;;;17.03;13.83;;;16.60;99.90;16.00;99881;;;;534558;266;24195;-75
2022/06/08 01:29:59;;;;;;;15.37;13.73;;;16.60;99.90;16.00;99882;;;;532341;266;24170;-73
2022/06/08 01:32:36;;;;;;;15.03;13.57;;;16.60;99.90;16.00;99873;;;;541522;261;25188;-75
2022/06/08 01:35:23;;;;;;;14.93;13.10;;;16.60;99.90;16.00;99881;;;;542264;261;24186;-73
2022/06/08 01:38:05;;;;;;;15.33;13.67;;;16.50;99.90;16.00;99874;;;;533551;263;24293;-75
2022/06/08 01:41:00;;;;;;;16.57;13.23;;;16.50;99.90;16.00;99876;;;;532503;265;24418;-79
2022/06/08 01:43:37;;;;;;;14.20;12.87;;;16.50;99.90;16.00;99881;;;;540021;265;24324;-75
2022/06/08 01:46:25;;;;;;;14.70;13.03;;;16.50;99.90;15.90;99879;;;;525861;269;24266;-73
2022/06/08 01:49:30;;;;;;;14.47;12.13;;;16.50;99.90;16.00;99878;;;;531618;266;24200;-76
2022/06/08 01:52:17;;;;;;;13.70;12.20;;;16.50;99.90;16.00;99878;;;;544147;261;24137;-73
2022/06/08 01:55:10;;;;;;;13.53;12.20;;;16.50;99.90;16.00;99874;;;;542279;260;25172;-74
2022/06/08 01:58:01;;;;;;;14.23;12.47;;;16.50;99.90;16.00;99872;;;;532630;266;24208;-76
2022/06/08 02:00:35;;;;;;;14.37;12.13;;;16.50;99.90;15.90;99868;;;;541983;259;24158;-73
2022/06/08 02:03:06;;;;;;;15.00;12.83;;;16.50;99.90;15.90;99868;;;;532628;265;24188;-75
2022/06/08 02:06:02;;;;;;;16.07;13.70;;;16.50;99.90;15.90;99872;;;;549636;260;24188;-73
2022/06/08 02:08:41;;;;;;;13.23;11.83;;;16.50;99.90;15.90;99873;;;;524342;269;24249;-77
2022/06/08 02:11:12;;;;;;;14.63;13.03;;;16.50;99.90;15.90;99872;;;;541894;261;24186;-74
2022/06/08 02:13:51;;;;;;;15.20;12.83;;;16.40;99.90;15.90;99874;;;;539884;265;24192;-76
2022/06/08 02:16:34;;;;;;;14.73;13.13;;;16.50;99.90;15.90;99867;;;;539980;265;24189;-77
2022/06/08 02:19:11;;;;;;;14.73;13.17;;;16.40;99.90;15.80;99869;;;;541455;261;24148;-76
2022/06/08 02:21:56;;;;;;;14.23;12.70;;;16.40;99.90;15.80;99869;;;;541419;261;24192;-75
2022/06/08 02:24:33;;;;;;;15.40;13.80;;;16.40;99.90;15.80;99870;;;;532553;266;24194;-74
2022/06/08 02:27:13;;;;;;;15.80;14.17;;;16.40;99.90;15.80;99861;;;;549377;261;24143;-72
2022/06/08 02:29:59;;;;;;;15.60;13.97;;;16.30;99.90;15.80;99855;;;;534707;263;24176;-77
2022/06/08 02:35:25;;;;;;;15.27;13.70;;;16.40;99.90;15.80;99860;;;;541588;261;24129;-73
2022/06/08 02:37:54;;;;;;;16.57;13.33;;;16.40;99.90;15.80;99852;;;;532164;266;24214;-81
2022/06/08 02:40:21;;;;;;;15.13;12.97;;;16.40;99.90;15.80;99862;;;;532388;266;24309;-76
2022/06/08 02:42:55;;;;;;;14.07;12.67;;;16.40;99.90;15.80;99866;;;;532273;266;24234;-73
2022/06/08 02:45:28;;;;;;;14.93;13.43;;;16.40;99.90;15.90;99864;;;;532238;264;24185;-73
2022/06/08 02:47:56;;;;;;;21.60;12.63;;;16.40;99.90;15.90;99862;;;;549993;259;24199;-73
2022/06/08 02:50:24;;;;;;;14.17;12.23;;;16.50;99.90;15.90;99862;;;;540703;265;24175;-72
2022/06/08 02:52:52;;;;;;;14.83;12.87;;;16.50;99.90;15.90;99857;;;;542380;261;24155;-74
2022/06/08 02:55:39;;;;;;;13.97;12.57;;;16.50;99.90;15.90;99859;;;;550105;261;24144;-73
2022/06/08 02:58:06;;;;;;;15.97;14.37;;;16.50;99.90;15.90;99860;;;;534536;265;24184;-74
2022/06/08 03:00:45;;;;;;;18.63;13.73;;;16.50;99.90;16.00;99860;;;;541790;261;24183;-73
2022/06/08 03:03:17;;;;;;;15.67;13.03;;;16.60;99.90;16.00;99853;;;;532487;265;24191;-74
2022/06/08 03:05:50;;;;;;;15.73;13.10;;;16.60;99.90;16.00;99856;;;;541312;261;24140;-75
2022/06/08 03:08:24;;;;;;;15.93;13.07;;;16.60;99.90;16.00;99852;;;;549712;261;24147;-72
2022/06/08 03:10:55;;;;;;;14.33;12.93;;;16.60;99.90;16.10;99854;;;;533247;265;24203;-74
2022/06/08 03:13:29;;;;;;;17.77;13.27;;;16.70;99.90;16.10;99856;;;;532417;266;24263;-73
2022/06/08 03:15:57;;;;;;;14.00;12.70;;;16.70;99.90;16.10;99852;;;;542125;261;24172;-73
2022/06/08 03:18:25;;;;;;;15.33;12.47;;;16.70;99.90;16.20;99846;;;;540102;265;24168;-74
2022/06/08 03:20:56;;;;;;;14.50;13.00;;;16.80;99.90;16.20;99842;;;;549246;256;24166;-73
2022/06/08 03:23:21;;;;;;;14.70;12.90;;;16.80;99.90;16.30;99847;;;;541603;259;24197;-74
2022/06/08 03:25:50;;;;;;;15.57;12.97;;;16.90;99.90;16.30;99848;;;;532854;266;24207;-74
2022/06/08 03:28:19;;;;;;;13.63;11.93;;;16.90;99.90;16.30;99847;;;;542170;261;24183;-73
2022/06/08 03:30:47;;;;;;;13.97;12.43;;;16.90;99.90;16.40;99846;;;;533196;263;24199;-74
2022/06/08 03:33:15;;;;;;;15.47;12.60;;;17.00;99.90;16.40;99854;;;;533045;266;24260;-72
2022/06/08 03:35:43;;;;;;;14.43;12.93;;;17.00;99.90;16.50;99848;;;;549894;261;24175;-72
2022/06/08 03:38:11;;;;;;;13.90;12.50;;;17.00;99.90;16.50;99851;;;;542078;259;24130;-72
2022/06/08 03:40:42;;;;;;;13.67;12.27;;;17.10;99.90;16.50;99857;;;;533108;266;24196;-73
2022/06/08 03:43:07;;;;;;;12.97;11.67;;;17.10;99.90;16.50;99857;;;;532554;266;24242;-74
2022/06/08 03:45:35;;;;;;;12.93;11.63;;;17.10;99.90;16.60;99857;;;;549825;256;24260;-73
2022/06/08 03:48:03;;;;;;;12.50;11.30;;;17.20;99.90;16.70;99850;;;;531379;266;24348;-75
2022/06/08 03:50:31;;;;;;;14.03;11.23;;;17.20;99.90;16.70;99850;;;;541710;261;24141;-72
2022/06/08 03:53:04;;;;;;;13.93;12.53;;;17.30;99.90;16.80;99853;;;;532622;266;24171;-72
2022/06/08 03:55:32;;;;;;;13.07;11.77;;;17.40;99.90;17.00;99850;;;;532682;265;24192;-72
2022/06/08 03:58:03;;;;;;;13.73;11.50;;;17.60;99.90;17.10;99861;;;;542413;260;24184;-82
2022/06/08 04:00:28;;;;;;;13.90;11.83;;;17.70;99.90;17.30;99859;;;;542798;261;24168;-78
2022/06/08 04:02:56;;;;;;;15.30;12.80;;;17.80;99.90;17.40;99850;;;;541020;264;24189;-79
2022/06/08 04:05:24;;;;;;;13.70;12.30;;;18.00;99.90;17.50;99858;;;;542377;261;24146;-79
2022/06/08 04:07:52;;;;;;;14.57;11.83;;;18.10;99.90;17.60;99862;;;;542274;261;24165;-81
2022/06/08 04:10:20;;;;;;;15.33;11.47;;;18.20;99.90;17.70;99871;;;;533075;265;24170;-78
2022/06/08 04:12:47;;;;;;;12.67;11.37;;;18.30;99.90;17.80;99864;;;;533205;265;24230;-80
2022/06/08 04:15:41;;;;;;;18.10;10.80;;;18.30;99.90;17.80;99864;;;;549988;260;24179;-77
2022/06/08 04:17:43;;;;;;;18.17;10.30;;;18.40;99.90;17.90;99870;;;;539065;260;24162;-81
2022/06/08 04:20:11;;;;;;;13.27;10.57;;;18.40;99.90;18.00;99871;;;;541883;261;24118;-79
2022/06/08 04:22:39;;;;;;;13.33;10.00;;;18.60;99.90;18.20;99864;;;;540429;258;24183;-82
2022/06/08 04:25:47;;;;;;;16.97;9.57;;;18.70;99.90;18.30;99872;;;;541964;261;24133;-83
2022/06/08 04:28:15;;;;;;;10.03;9.03;;;18.90;99.90;18.60;99867;;;;532708;266;24158;-82
2022/06/08 04:30:43;;;;;;;14.53;9.33;;;19.10;99.90;18.90;99871;;;;542355;261;24185;-76
2022/06/08 04:33:11;;;;;;;8.73;7.93;;;19.40;99.90;19.20;99864;;;;542267;259;24185;-77
2022/06/08 04:35:39;;;;;;;7.87;7.20;;;19.70;99.90;19.50;99867;;;;542337;261;24160;-84
2022/06/08 04:38:11;;;;;;;8.03;7.27;;;20.00;99.90;20.10;99860;;;;542347;261;24130;-75
2022/06/08 04:40:35;;;;;;;8.27;7.47;;;20.60;99.90;21.20;99863;;;;532308;266;24167;-74
2022/06/08 04:43:03;;;;;;;7.07;6.37;;;21.70;99.90;22.50;99866;;;;542032;261;24152;-76
2022/06/08 04:45:30;;;;;;;7.30;6.70;;;23.00;99.90;23.80;99867;;;;541895;261;24238;-73
2022/06/08 04:47:58;;;;;;;7.33;6.10;;;24.40;99.90;24.30;99866;;;;540189;263;24204;-74
2022/06/08 04:50:26;;;;;;;7.27;6.57;;;25.10;99.90;24.20;99858;;;;541570;261;24147;-73
2022/06/08 04:52:54;;;;;;;7.80;6.63;;;25.10;99.90;24.30;99857;;;;541636;261;24153;-72
2022/06/08 04:55:23;;;;;;;8.90;7.13;;;25.30;99.90;24.40;99862;;;;532576;265;24197;-73
2022/06/08 04:57:51;;;;;;;9.27;6.83;;;25.30;99.90;24.80;99860;;;;532670;266;23210;-73
2022/06/08 05:00:20;;;;;;;6.87;6.27;;;25.60;99.90;25.40;99855;;;;541606;261;23229;-76
2022/06/08 05:02:50;;;;;;;7.50;5.80;;;26.20;99.90;26.10;99854;;;;539693;266;24190;-73
2022/06/08 05:05:31;;;;;;;6.87;6.37;;;27.60;99.90;26.90;99859;;;;541187;261;23181;-74
2022/06/08 05:07:58;;;;;;;6.43;5.83;;;27.50;99.90;28.30;99852;;;;532446;266;23235;-74
2022/06/08 05:10:26;;;;;;;5.97;5.57;;;28.90;99.90;30.10;99857;;;;533727;265;23215;-74
2022/06/08 05:12:55;;;;;;;5.90;5.50;;;32.30;90.10;31.70;99861;;;;533120;265;23212;-76
2022/06/08 05:15:24;;;;;;;5.68;5.15;;;32.90;80.50;32.00;99859;;;;533372;265;24250;-82
2022/06/08 05:17:52;;;;;;;5.72;5.32;;;32.80;80.30;32.00;99866;;;;540363;265;24250;-73
2022/06/08 05:20:20;;;;;;;5.57;5.18;;;32.90;74.50;31.50;99856;;;;533116;265;23252;-73
2022/06/08 05:22:47;;;;;;;5.72;5.25;;;32.60;72.60;30.90;99861;;;;542145;261;23225;-74
2022/06/08 05:25:16;;;;;;;6.60;5.37;;;31.50;74.20;30.40;99860;;;;532587;266;23249;-73
2022/06/08 05:27:45;;;;;;;6.55;6.00;;;31.30;75.00;30.30;99862;;;;532764;265;23229;-74
2022/06/08 05:30:17;;;;;;;5.75;4.97;;;31.20;74.90;30.40;99868;;;;541769;261;23147;-75
2022/06/08 05:32:41;;;;;;;6.47;5.87;;;31.20;74.10;30.30;99865;;;;541772;261;24165;-80
2022/06/08 05:35:11;;;;;;;5.68;5.22;;;31.20;72.90;30.70;99867;;;;542233;261;23192;-76
2022/06/08 05:37:36;;;;;;;7.28;5.43;;;31.30;72.70;31.00;99873;;;;533048;265;23241;-74
2022/06/08 05:40:04;;;;;;;6.25;5.70;;;31.60;72.40;31.50;99869;;;;550104;260;24144;-77
2022/06/08 05:42:35;;;;;;;6.15;5.62;;;32.10;71.50;31.70;99868;;;;532749;266;23152;-74
2022/06/08 05:45:00;;;;;;;4.93;4.53;;;32.30;69.80;31.80;99870;;;;532828;266;23214;-74
2022/06/08 05:47:29;;;;;;;6.22;5.70;;;32.80;67.80;32.10;99875;;;;541635;261;23222;-73
2022/06/08 05:49:57;;;;;;;5.50;5.10;;;32.70;67.80;32.90;99872;;;;541703;261;24223;-72
2022/06/08 05:52:26;;;;;;;4.72;4.53;;;33.40;66.90;33.80;99870;;;;532376;266;23205;-74
2022/06/08 05:54:53;;;;;;;5.93;5.40;;;34.20;65.50;35.30;99881;;;;532646;266;23248;-74
2022/06/08 05:57:21;;;;;;;5.68;5.25;;;35.60;62.60;37.00;99878;;;;536928;261;35820;-77
2022/06/08 05:59:49;;;;;;;5.53;5.03;;;37.20;58.20;37.70;99872;;;;532060;266;23248;-77
2022/06/08 06:02:17;;;;;;;5.62;5.07;;;38.60;54.20;38.00;99875;;;;541704;261;24129;-77
2022/06/08 06:04:45;;;;;;;9.13;5.15;;;38.50;54.10;38.10;99877;;;;532101;266;23214;-75
2022/06/08 06:07:13;;;;;;;7.03;4.97;;;38.80;54.00;39.20;99878;;;;540303;265;23159;-75
2022/06/08 06:09:41;;;;;;;5.70;5.05;;;39.70;52.50;40.90;99880;;;;541698;261;23186;-77
2022/06/08 06:12:10;;;;;;;6.53;5.90;;;42.30;48.70;42.00;99883;;;;541887;261;23144;-76
2022/06/08 06:14:38;;;;;;;9.20;5.22;;;42.20;48.60;43.10;99878;;;;541664;261;23139;-75
2022/06/08 06:17:06;;;;;;;7.32;4.70;;;43.40;46.70;44.00;99885;;;;541599;261;23161;-77
2022/06/08 06:19:33;;;;;;;6.72;5.05;;;44.40;44.60;45.00;99887;;;;532242;266;24269;-75
2022/06/08 06:22:01;;;;;;;5.90;4.93;;;45.30;43.50;45.80;99883;;;;542884;259;23182;-75
2022/06/08 06:24:29;;;;;;;7.78;4.20;;;46.20;41.80;46.30;99891;;;;542346;259;23211;-75
2022/06/08 06:26:57;;;;;;;4.80;4.22;;;46.80;40.80;47.10;99886;;;;540925;259;23180;-74
2022/06/08 06:29:25;;;;;;;7.47;4.40;;;47.50;40.00;47.60;99888;;;;542263;261;23146;-75
2022/06/08 06:31:53;;;;;;;5.78;4.45;;;48.10;38.80;47.10;99889;;;;542159;261;23178;-76
2022/06/08 06:34:22;;;;;;;4.10;3.87;;;47.50;38.20;46.80;99889;;;;540509;265;23257;-75
2022/06/08 06:36:53;;;;;;;4.47;4.20;;;47.60;38.20;46.10;99890;;;;528758;265;35924;-80
2022/06/08 06:39:17;;;;;;;4.75;4.45;;;47.10;37.90;45.00;99895;;;;528365;265;46756;-83
2022/06/08 06:41:48;;;;;;;4.65;3.97;;;46.10;38.50;43.60;99899;;;;550122;259;23198;-75
2022/06/08 06:44:13;;;;;;;4.72;4.15;;;44.90;39.70;42.50;99905;;;;542080;261;23170;-81
2022/06/08 06:46:41;;;;;;;7.60;4.25;;;43.70;41.00;41.50;99903;;;;542154;261;23203;-83
2022/06/08 06:49:09;;;;;;;5.03;3.97;;;42.50;41.80;40.20;99900;;;;541934;261;23235;-80
2022/06/08 06:51:37;;;;;;;4.87;4.45;;;41.20;43.00;39.00;99901;;;;541844;259;23150;-80
2022/06/08 06:54:09;;;;;;;5.07;4.47;;;38.90;45.50;38.10;99897;;;;532473;266;23195;-78
2022/06/08 06:56:34;;;;;;;5.80;4.35;;;38.80;45.50;37.40;99893;;;;541452;261;23169;-74
2022/06/08 06:59:02;;;;;;;6.28;4.32;;;38.00;46.00;36.50;99901;;;;532048;266;23317;-75
2022/06/08 07:01:29;;;;;;;6.20;4.78;;;37.20;47.20;35.80;99896;;;;541664;261;23201;-75
2022/06/08 07:03:58;;;;;;;4.80;4.40;;;35.70;49.70;35.00;99890;;;;532102;266;23209;-75
2022/06/08 07:06:29;;;;;;;5.10;4.70;;;35.60;49.60;34.60;99888;;;;541749;261;23151;-76
2022/06/08 07:08:54;;;;;;;4.22;3.92;;;35.10;50.30;34.30;99886;;;;541757;261;23150;-80
2022/06/08 07:11:35;;;;;;;4.00;3.80;;;34.70;50.90;33.90;99881;;;;542088;261;23210;-79
2022/06/08 07:14:02;;;;;;;4.45;3.90;;;34.30;51.30;33.70;99882;;;;542408;261;23175;-79
2022/06/08 07:16:33;;;;;;;10.82;7.57;;;34.00;51.80;33.40;99874;;;;550203;260;24149;-73
2022/06/08 07:18:57;;;;;;;9.45;6.82;;;33.80;53.60;33.00;99871;;;;541800;261;23162;-74
2022/06/08 07:21:25;;;;;;;8.32;7.55;;;33.50;54.40;32.10;99881;;;;549774;260;23219;-82
2022/06/08 07:23:53;;;;;;;8.07;6.65;;;32.80;56.00;31.10;99878;;;;532306;266;23202;-78
2022/06/08 07:26:24;;;;;;;8.07;7.30;;;31.40;59.00;30.40;99879;;;;541714;261;23155;-81
2022/06/08 07:28:53;;;;;;;10.63;7.97;;;30.70;61.00;29.60;99886;;;;532943;266;23190;-82
2022/06/08 07:31:21;;;;;;;8.15;7.15;;;30.60;60.90;29.70;99880;;;;542038;258;23158;-79
2022/06/08 07:33:49;;;;;;;7.60;6.97;;;30.50;61.90;30.00;99882;;;;533934;265;24226;-78
2022/06/08 07:36:21;;;;;;;10.48;6.95;;;30.60;62.00;30.00;99883;;;;545380;261;23151;-82
2022/06/08 07:38:45;;;;;;;8.18;7.47;;;30.60;62.00;30.10;99878;;;;542979;261;23198;-78
2022/06/08 07:41:13;;;;;;;8.32;7.43;;;30.70;61.20;29.50;99886;;;;542743;261;23162;-83
2022/06/08 07:43:41;;;;;;;8.80;7.95;;;30.40;62.40;29.00;99884;;;;542520;261;23201;-82
2022/06/08 07:46:09;;;;;;;8.60;7.90;;;29.90;63.30;28.30;99878;;;;549818;256;23212;-81
2022/06/08 07:51:22;;;;;;;9.63;8.73;;;28.50;67.00;27.20;99882;;;;542000;261;23214;-80
2022/06/08 07:53:50;;;;;;;11.30;9.53;;;28.00;69.50;27.10;99879;;;;532248;266;23241;-75
2022/06/08 07:56:19;;;;;;;11.33;8.73;;;27.70;70.70;27.20;99877;;;;542009;261;23158;-75
2022/06/08 07:58:48;;;;;;;10.67;9.37;;;27.70;71.40;27.70;99874;;;;532433;266;23258;-88
2022/06/08 08:01:15;;;;;;;9.40;8.47;;;28.70;70.10;28.30;99867;;;;540908;259;24197;-88
2022/06/08 08:03:43;;;;;;;10.27;9.47;;;28.60;69.90;28.90;99868;;;;550657;259;23189;-88
2022/06/08 08:06:11;;;;;;;10.43;9.43;;;29.30;68.80;29.30;99871;;;;539969;259;23175;-78
2022/06/08 08:08:39;;;;;;;10.40;9.50;;;29.80;67.80;29.10;99876;;;;540229;266;24180;-73
2022/06/08 08:11:07;;;;;;;9.93;9.00;;;29.80;66.90;28.70;99877;;;;541720;261;23158;-74
2022/06/08 08:13:36;;;;;;;10.57;9.47;;;29.50;67.60;28.40;99874;;;;540156;265;24211;-74
2022/06/08 08:16:06;;;;;;;15.83;10.70;;;29.20;68.40;28.10;99879;;;;532626;266;23201;-75
2022/06/08 08:18:31;;;;;;;15.18;11.07;;;28.80;69.70;27.90;99875;;;;527929;266;35976;-76
2022/06/08 08:20:58;;;;;;;12.13;11.10;;;28.60;70.70;27.70;99882;;;;549355;261;23201;-80
2022/06/08 08:23:26;;;;;;;10.13;9.33;;;28.40;71.50;27.30;99881;;;;549477;260;23149;-78
2022/06/08 08:25:54;;;;;;;10.10;9.40;;;28.10;72.60;27.30;99882;;;;541770;261;23171;-76
2022/06/08 08:28:23;;;;;;;10.37;9.33;;;28.00;73.30;27.40;99884;;;;532647;266;23193;-80
2022/06/08 08:30:51;;;;;;;10.93;10.03;;;28.10;73.30;27.40;99884;;;;549169;261;24190;-75
2022/06/08 08:33:20;;;;;;;10.30;8.50;;;28.10;74.00;27.50;99880;;;;541900;259;23158;-73
2022/06/08 08:35:50;;;;;;;17.97;9.53;;;28.10;73.20;27.60;99889;;;;532312;266;23170;-74
2022/06/08 08:38:16;;;;;;;14.07;9.70;;;28.20;73.10;27.80;99885;;;;542008;261;23146;-73
2022/06/08 08:40:44;;;;;;;9.07;8.10;;;28.40;73.70;29.30;99887;;;;532954;264;23206;-74
2022/06/08 08:43:17;;;;;;;11.82;8.38;;;29.50;71.70;30.20;99879;;;;542069;259;23147;-75
2022/06/08 08:46:10;;;;;;;8.82;8.02;;;30.50;68.80;30.40;99877;;;;543173;261;23151;-74
2022/06/08 08:48:53;;;;;;;9.63;8.23;;;31.00;66.40;30.40;99891;;;;530744;265;23177;-74
2022/06/08 08:51:26;;;;;;;7.87;7.25;;;31.20;65.80;30.10;99880;;;;541659;261;23161;-73
2022/06/08 08:54:16;;;;;;;10.20;7.62;;;31.20;65.70;30.60;99883;;;;539971;266;23230;-72
2022/06/08 08:56:46;;;;;;;8.90;8.05;;;31.20;65.60;31.20;99878;;;;542284;261;23179;-76
2022/06/08 08:59:16;;;;;;;16.00;7.30;;;31.70;64.10;32.00;99882;;;;532968;266;23193;-76
2022/06/08 09:01:44;;;;;;;8.30;7.50;;;32.50;63.00;33.20;99883;;;;542375;261;23192;-75
2022/06/08 09:04:33;;;;;;;7.47;6.37;;;33.60;59.60;35.00;99876;;;;532689;265;23219;-75
2022/06/08 09:07:01;;;;;;;8.15;7.05;;;35.30;56.80;36.60;99877;;;;533118;265;23178;-77
2022/06/08 09:09:29;;;;;;;7.18;6.57;;;37.00;54.10;37.90;99884;;;;548585;261;23143;-77
2022/06/08 09:12:01;;;;;;;8.07;7.22;;;38.50;51.70;38.40;99881;;;;540490;265;23232;-77
2022/06/08 09:14:25;;;;;;;8.20;6.70;;;39.40;50.20;39.20;99873;;;;532974;265;23267;-76
2022/06/08 09:17:12;;;;;;;6.68;6.28;;;41.10;47.80;40.30;99878;;;;531965;265;23197;-75
2022/06/08 09:19:41;;;;;;;6.40;5.80;;;41.10;47.70;40.90;99879;;;;533093;265;23264;-77
2022/06/08 09:22:11;;;;;;;7.43;6.00;;;41.90;45.30;41.80;99868;;;;532716;266;23245;-76
2022/06/08 09:25:03;;;;;;;5.65;5.15;;;42.80;44.60;42.50;99870;;;;532962;265;23201;-77
2022/06/08 09:27:36;;;;;;;6.12;5.68;;;43.40;43.40;42.30;99864;;;;536208;261;35771;-80
2022/06/08 09:30:24;;;;;;;6.78;6.15;;;43.70;42.10;42.30;99866;;;;532979;266;23221;-75
2022/06/08 09:33:02;;;;;;;8.32;7.53;;;43.70;42.80;42.40;99865;;;;542034;261;23161;-74
2022/06/08 09:35:36;;;;;;;7.68;6.72;;;43.80;42.80;40.50;99856;;;;542027;261;23197;-75
2022/06/08 09:38:06;;;;;;;7.50;6.80;;;41.20;45.40;39.10;99862;;;;542137;260;23179;-78
2022/06/08 09:40:48;;;;;;;12.52;7.18;;;39.60;47.20;37.40;99860;;;;549344;260;23151;-76
2022/06/08 09:43:31;;;;;;;6.82;5.72;;;37.90;48.30;36.20;99863;;;;532001;266;23322;-74
2022/06/08 09:52:11;;;;;;;9.30;4.87;;;34.20;53.70;33.30;99865;;;;549259;261;23162;-76
2022/06/08 09:54:51;;;;;;;6.60;3.85;;;34.20;53.60;34.10;99866;;;;542268;261;23145;-79
2022/06/08 09:57:41;;;;;;;3.90;3.58;;;34.70;51.70;34.70;99860;;;;550606;260;24169;-74
2022/06/08 10:00:27;;;;;;;18.12;4.03;;;35.20;51.10;35.30;99857;;;;542274;261;23146;-74
2022/06/08 10:03:21;;;;;;;6.72;4.75;;;35.80;50.10;35.00;99856;;;;533730;265;23216;-74
2022/06/08 10:06:13;;;;;;;5.82;4.30;;;35.90;50.00;34.50;99838;;;;533440;265;23228;-79
2022/06/08 10:08:59;;;;;;;8.60;6.18;;;35.50;50.30;34.60;99841;;;;533353;265;23215;-78
2022/06/08 10:11:45;;;;;;;4.47;3.40;;;35.40;50.30;34.10;99842;;;;550382;261;23150;-79
2022/06/08 10:14:25;;;;;;;15.57;3.53;;;35.10;49.50;33.80;99833;;;;542717;259;23171;-76
2022/06/08 10:17:11;;;;;;;5.70;2.87;;;34.70;50.30;33.80;99831;;;;539858;265;23213;-79
2022/06/08 10:20:00;;;;;;;3.83;3.30;;;34.50;50.40;33.30;99831;;;;533122;265;23209;-82
2022/06/08 10:22:46;;;;;;;5.75;3.47;;;34.10;50.90;32.80;99830;;;;550163;256;23175;-79
2022/06/08 10:25:23;;;;;;;5.43;4.10;;;33.50;52.00;32.20;99832;;;;532688;266;23236;-78
2022/06/08 10:27:54;;;;;;;6.32;3.55;;;32.30;54.10;31.70;99832;;;;541378;261;24174;-79
2022/06/08 10:30:41;;;;;;;5.90;3.97;;;31.70;54.40;31.10;99833;;;;532652;265;23206;-80
2022/06/08 10:33:46;;;;;;;3.78;3.20;;;31.70;54.40;30.30;99829;;;;532524;263;24212;-82
2022/06/08 10:36:17;;;;;;;15.18;4.18;;;31.00;55.40;29.90;99833;;;;541396;261;23204;-74
2022/06/08 10:38:44;;;;;;;5.53;3.50;;;30.40;56.80;29.50;99833;;;;541762;261;23157;-73
2022/06/08 10:44:03;;;;;;;8.13;3.45;;;29.20;59.40;28.70;99830;;;;549518;256;23143;-72
2022/06/08 10:46:45;;;;;;;5.00;3.30;;;29.10;59.40;28.50;99833;;;;541771;261;23143;-74
2022/06/08 10:49:31;;;;;;;3.53;3.30;;;28.90;60.10;28.30;99834;;;;549439;261;23166;-73
2022/06/08 10:52:20;;;;;;;4.97;3.40;;;28.70;61.30;28.00;99831;;;;532045;266;24202;-75
2022/06/08 10:54:54;;;;;;;3.53;3.30;;;28.40;61.90;27.50;99832;;;;541769;261;23193;-73
2022/06/08 10:57:37;;;;;;;5.83;3.37;;;28.00;62.40;27.10;99832;;;;532595;266;24227;-72
2022/06/08 11:00:24;;;;;;;4.18;3.70;;;27.60;63.70;26.80;99826;;;;528338;266;35960;-74
2022/06/08 11:03:01;;;;;;;6.43;3.87;;;27.00;65.80;26.60;99831;;;;541730;261;23211;-75
2022/06/08 11:05:38;;;;;;;4.13;3.27;;;27.00;65.80;26.40;99834;;;;532351;266;23202;-77
2022/06/08 11:08:13;;;;;;;7.20;4.37;;;26.80;66.60;26.30;99827;;;;533456;265;23195;-74
2022/06/08 11:10:51;;;;;;;8.00;5.10;;;26.70;67.40;26.30;99828;;;;542606;261;23154;-73
2022/06/08 11:13:23;;;;;;;8.10;4.10;;;26.60;68.50;26.20;99823;;;;541296;261;24190;-74
2022/06/08 11:15:54;;;;;;;4.87;4.27;;;26.60;68.70;26.20;99826;;;;533251;264;23172;-73
2022/06/08 11:18:46;;;;;;;20.77;4.70;;;26.60;68.60;26.30;99823;;;;542627;261;23251;-76
2022/06/08 11:21:14;;;;;;;8.47;3.97;;;26.70;68.80;26.30;99823;;;;533165;263;23182;-77
2022/06/08 11:24:00;;;;;;;8.13;4.60;;;26.70;68.90;26.30;99810;;;;542343;259;23163;-78
2022/06/08 11:26:37;;;;;;;3.77;3.47;;;26.70;68.70;26.30;99821;;;;532546;265;23244;-80
2022/06/08 11:29:17;;;;;;;4.63;4.30;;;26.70;68.20;26.30;99809;;;;533055;265;23209;-78
2022/06/08 11:31:45;;;;;;;8.03;5.07;;;26.70;68.70;26.20;99804;;;;541615;262;23188;-78
2022/06/08 11:34:23;;;;;;;7.83;5.27;;;26.60;69.60;26.20;99808;;;;532924;265;23170;-78
2022/06/08 11:37:14;;;;;;;6.57;5.13;;;26.60;70.10;26.30;99805;;;;542423;259;24144;-82
2022/06/08 11:39:57;;;;;;;5.23;4.13;;;26.70;70.20;26.70;99802;;;;549445;260;24165;-73
2022/06/08 11:42:28;;;;;;;6.40;3.90;;;27.00;70.40;27.20;99804;;;;542291;261;24171;-82
2022/06/08 11:44:56;;;;;;;5.83;3.83;;;27.50;69.50;27.70;99793;;;;542061;261;24170;-82
2022/06/08 11:47:32;;;;;;;4.53;4.00;;;28.00;68.00;28.20;99792;;;;550009;260;23152;-81
2022/06/08 11:50:03;;;;;;;11.87;4.67;;;28.50;66.80;28.50;99797;;;;549173;261;23169;-82
2022/06/08 11:52:33;;;;;;;6.47;3.67;;;28.90;66.20;28.60;99800;;;;532195;266;23204;-82